createdAt,value
2023-01-11T00:00:29.140Z,-0.55
2023-01-11T00:03:00.980Z,-0.52
2023-01-11T00:05:27.518Z,-0.53
2023-01-11T00:07:54.168Z,-0.52
2023-01-11T00:10:20.865Z,-0.49
2023-01-11T00:12:47.545Z,-0.48
2023-01-11T00:15:14.679Z,-0.48
2023-01-11T00:17:41.796Z,-0.49
2023-01-11T00:20:10.448Z,-0.59
2023-01-11T00:22:37.948Z,-0.46
2023-01-11T00:25:05.431Z,-0.47
2023-01-11T00:27:31.850Z,-0.48
2023-01-11T00:29:58.228Z,-0.49
2023-01-11T00:32:24.690Z,-0.51
2023-01-11T00:34:51.043Z,-0.47
2023-01-11T00:37:17.442Z,-0.50
2023-01-11T00:39:43.811Z,-0.47
2023-01-11T00:42:30.165Z,-0.43
2023-01-11T00:45:15.420Z,-0.42
2023-01-11T00:48:00.190Z,-0.40
2023-01-11T00:50:37.816Z,-0.32
2023-01-11T00:53:05.450Z,-0.28
2023-01-11T00:55:32.454Z,-0.30
2023-01-11T00:57:59.251Z,-0.36
2023-01-11T01:00:25.773Z,-0.33
2023-01-11T01:02:52.260Z,-0.33
2023-01-11T01:05:19.069Z,-0.27
2023-01-11T01:07:46.313Z,-0.24
2023-01-11T01:10:15.609Z,-0.18
2023-01-11T01:13:00.689Z,-0.24
2023-01-11T01:15:27.503Z,-0.24
2023-01-11T01:17:55.586Z,-0.29
2023-01-11T01:20:23.343Z,-0.28
2023-01-11T01:22:50.433Z,-0.26
2023-01-11T01:25:17.300Z,-0.17
2023-01-11T01:27:43.650Z,-0.18
2023-01-11T01:30:10.566Z,-0.16
2023-01-11T01:32:36.978Z,-0.18
2023-01-11T01:35:03.534Z,-0.18
2023-01-11T01:37:29.977Z,-0.16
2023-01-11T01:39:56.368Z,-0.17
2023-01-11T01:42:24.067Z,-0.20
2023-01-11T01:45:00.911Z,-0.24
2023-01-11T01:47:40.504Z,-0.25
2023-01-11T01:50:12.864Z,-0.30
2023-01-11T01:52:40.725Z,-0.31
2023-01-11T01:55:12.175Z,-0.35
2023-01-11T01:57:43.624Z,-0.38
2023-01-11T02:00:10.889Z,-0.39
2023-01-11T02:02:39.824Z,-0.31
2023-01-11T02:05:08.103Z,-0.36
2023-01-11T02:07:37.920Z,-0.36
2023-01-11T02:10:15.707Z,-0.35
2023-01-11T02:12:50.845Z,-0.28
2023-01-11T02:15:19.590Z,-0.26
2023-01-11T02:17:46.048Z,-0.27
2023-01-11T02:20:28.269Z,-0.26
2023-01-11T02:23:30.484Z,-0.28
2023-01-11T02:26:15.891Z,-0.20
2023-01-11T02:28:56.915Z,-0.20
2023-01-11T02:31:49.749Z,-0.09
2023-01-11T02:34:25.451Z,-0.05
2023-01-11T02:37:38.352Z,-0.08
2023-01-11T02:40:21.537Z,-0.12
2023-01-11T02:43:12.040Z,-0.12
2023-01-11T02:45:41.170Z,-0.11
2023-01-11T02:48:13.488Z,-0.13
2023-01-11T02:50:46.051Z,-0.09
2023-01-11T02:53:31.031Z,-0.09
2023-01-11T02:56:01.351Z,-0.05
2023-01-11T02:58:32.828Z,-0.05
2023-01-11T03:00:59.753Z,-0.08
2023-01-11T03:03:29.662Z,-0.07
2023-01-11T03:06:13.657Z,-0.06
2023-01-11T03:09:05.115Z,-0.09
2023-01-11T03:12:19.696Z,-0.05
2023-01-11T03:15:12.527Z,-0.06
2023-01-11T03:17:47.363Z,-0.08
2023-01-11T03:20:30.662Z,-0.06
2023-01-11T03:23:19.091Z,-0.07
2023-01-11T03:26:02.004Z,-0.11
2023-01-11T03:28:48.433Z,-0.07
2023-01-11T03:31:26.136Z,-0.03
2023-01-11T03:34:15.471Z,-0.05
2023-01-11T03:36:56.836Z,-0.09
2023-01-11T03:39:26.034Z,-0.13
2023-01-11T03:41:57.227Z,-0.14
2023-01-11T03:44:26.212Z,-0.24
2023-01-11T03:47:02.177Z,-0.24
2023-01-11T03:49:36.602Z,-0.27
2023-01-11T03:52:07.145Z,-0.21
2023-01-11T03:54:33.818Z,-0.21
2023-01-11T03:57:08.622Z,-0.20
2023-01-11T03:59:35.045Z,-0.11
2023-01-11T04:02:02.255Z,-0.13
2023-01-11T04:04:28.803Z,-0.08
2023-01-11T04:06:55.374Z,-0.07
2023-01-11T04:09:22.144Z,-0.06
2023-01-11T04:11:48.646Z,-0.04
2023-01-11T04:14:14.997Z,-0.01
2023-01-11T04:16:41.435Z,0.06
2023-01-11T04:19:07.881Z,-0.01
2023-01-11T04:21:34.294Z,-0.03
2023-01-11T04:24:01.768Z,0.05
2023-01-11T04:26:28.112Z,0.01
2023-01-11T04:28:54.634Z,0.03
2023-01-11T04:31:21.164Z,0.02
2023-01-11T04:33:47.633Z,0.02
2023-01-11T04:36:14.412Z,0.02
2023-01-11T04:38:40.951Z,0.03
2023-01-11T04:41:26.269Z,0.03
2023-01-11T04:43:56.439Z,-0.01
2023-01-11T04:46:23.877Z,-0.07
2023-01-11T04:48:50.634Z,-0.02
2023-01-11T04:51:17.380Z,-0.01
2023-01-11T04:53:43.804Z,0.02
2023-01-11T04:56:12.043Z,0.03
2023-01-11T04:58:38.464Z,0.08
2023-01-11T05:01:14.271Z,-0.03
2023-01-11T05:03:40.788Z,-0.02
2023-01-11T05:06:07.710Z,0.01
2023-01-11T05:08:35.153Z,0.03
2023-01-11T05:11:04.972Z,0.06
2023-01-11T05:13:43.197Z,0.11
2023-01-11T05:16:23.894Z,0.15
2023-01-11T05:18:56.116Z,0.19
2023-01-11T05:21:24.720Z,0.21
2023-01-11T05:23:52.136Z,0.22
2023-01-11T05:26:24.521Z,0.25
2023-01-11T05:28:52.051Z,0.23
2023-01-11T05:31:19.093Z,0.25
2023-01-11T05:33:45.871Z,0.27
2023-01-11T05:36:14.601Z,0.30
2023-01-11T05:38:41.224Z,0.28
2023-01-11T05:41:09.716Z,0.28
2023-01-11T05:43:56.209Z,0.19
2023-01-11T05:46:23.360Z,0.24
2023-01-11T05:48:50.005Z,0.17
2023-01-11T05:51:17.873Z,0.22
2023-01-11T05:53:44.271Z,0.23
2023-01-11T05:56:10.788Z,0.23
2023-01-11T05:58:37.247Z,0.19
2023-01-11T06:01:03.941Z,0.21
2023-01-11T06:03:30.399Z,0.19
2023-01-11T06:05:59.083Z,0.14
2023-01-11T06:08:26.089Z,0.04
2023-01-11T06:10:56.573Z,0.08
2023-01-11T06:13:27.841Z,0.14
2023-01-11T06:16:09.869Z,0.16
2023-01-11T06:18:38.513Z,0.19
2023-01-11T06:21:05.787Z,0.12
2023-01-11T06:23:34.231Z,0.21
2023-01-11T06:26:02.836Z,0.20
2023-01-11T06:28:29.550Z,0.23
2023-01-11T06:30:57.642Z,0.23
2023-01-11T06:33:25.671Z,0.24
2023-01-11T06:35:52.590Z,0.25
2023-01-11T06:38:21.819Z,0.25
2023-01-11T06:41:08.399Z,0.29
2023-01-11T06:43:37.250Z,0.24
2023-01-11T06:46:04.135Z,0.25
2023-01-11T06:48:30.619Z,0.19
2023-01-11T06:50:58.426Z,0.29
2023-01-11T06:53:28.402Z,0.28
2023-01-11T06:55:57.180Z,0.32
2023-01-11T06:58:25.034Z,0.31
2023-01-11T07:00:53.186Z,0.28
2023-01-11T07:03:24.145Z,0.33
2023-01-11T07:05:52.305Z,0.32
2023-01-11T07:08:19.230Z,0.33
2023-01-11T07:10:46.176Z,0.36
2023-01-11T07:13:12.634Z,0.33
2023-01-11T07:15:39.150Z,0.38
2023-01-11T07:18:05.666Z,0.36
2023-01-11T07:20:31.999Z,0.29
2023-01-11T07:22:59.508Z,0.31
2023-01-11T07:25:27.741Z,0.37
2023-01-11T07:27:59.410Z,0.24
2023-01-11T07:30:27.580Z,0.28
2023-01-11T07:32:54.475Z,0.31
2023-01-11T07:35:21.246Z,0.38
2023-01-11T07:37:47.682Z,0.39
2023-01-11T07:40:16.255Z,0.39
2023-01-11T07:43:11.952Z,0.40
2023-01-11T07:45:45.641Z,0.38
2023-01-11T07:48:13.027Z,0.40
2023-01-11T07:50:42.830Z,0.42
2023-01-11T07:53:10.685Z,0.49
2023-01-11T07:55:38.713Z,0.54
2023-01-11T07:58:06.507Z,0.55
2023-01-11T08:00:32.940Z,0.50
2023-01-11T08:03:00.763Z,0.49
2023-01-11T08:05:27.272Z,0.53
2023-01-11T08:07:53.746Z,0.56
2023-01-11T08:10:20.199Z,0.62
2023-01-11T08:13:07.192Z,0.59
2023-01-11T08:15:36.607Z,0.55
2023-01-11T08:18:05.605Z,0.62
2023-01-11T08:20:32.090Z,0.65
2023-01-11T08:23:02.927Z,0.63
2023-01-11T08:25:29.308Z,0.67
2023-01-11T08:27:55.682Z,0.75
2023-01-11T08:30:22.039Z,0.74
2023-01-11T08:32:48.442Z,0.80
2023-01-11T08:35:14.892Z,0.85
2023-01-11T08:37:41.285Z,0.89
2023-01-11T08:40:08.529Z,0.92
2023-01-11T08:42:35.173Z,1.00
2023-01-11T08:45:01.829Z,1.01
2023-01-11T08:47:28.379Z,0.99
2023-01-11T08:49:54.878Z,1.12
2023-01-11T08:52:21.593Z,1.12
2023-01-11T08:54:48.003Z,1.10
2023-01-11T08:57:14.369Z,1.18
2023-01-11T08:59:40.784Z,1.23
2023-01-11T09:02:07.482Z,1.23
2023-01-11T09:04:34.065Z,1.26
2023-01-11T09:07:01.591Z,1.26
2023-01-11T09:09:27.971Z,1.28
2023-01-11T09:11:56.353Z,1.29
2023-01-11T09:14:27.066Z,1.34
2023-01-11T09:16:54.555Z,1.34
2023-01-11T09:19:21.877Z,1.35
2023-01-11T09:21:48.683Z,1.40
2023-01-11T09:24:15.136Z,1.46
2023-01-11T09:26:43.368Z,1.45
2023-01-11T09:29:11.364Z,1.48
2023-01-11T09:31:37.980Z,1.56
2023-01-11T09:34:05.369Z,1.59
2023-01-11T09:36:33.275Z,1.56
2023-01-11T09:39:01.729Z,1.63
2023-01-11T09:41:41.791Z,1.63
2023-01-11T09:44:16.549Z,1.65
2023-01-11T09:46:48.136Z,1.63
2023-01-11T09:49:25.030Z,1.61
2023-01-11T09:51:53.443Z,1.64
2023-01-11T09:54:27.075Z,1.66
2023-01-11T09:57:10.431Z,1.67
2023-01-11T09:59:50.629Z,1.74
2023-01-11T10:02:35.840Z,1.79
2023-01-11T10:05:19.482Z,1.80
2023-01-11T10:18:29.669Z,1.85
2023-01-11T10:18:39.148Z,1.96
2023-01-11T10:20:30.680Z,1.97
2023-01-11T10:23:17.257Z,1.99
2023-01-11T10:25:51.333Z,2.03
2023-01-11T10:28:24.980Z,2.06
2023-01-11T10:31:08.157Z,2.05
2023-01-11T10:33:46.678Z,2.05
2023-01-11T10:37:05.676Z,2.15
2023-01-11T10:40:09.220Z,2.20
2023-01-11T10:42:46.606Z,2.29
2023-01-11T10:45:18.583Z,2.34
2023-01-11T10:48:18.646Z,2.39
2023-01-11T10:51:01.502Z,2.49
2023-01-11T10:53:43.436Z,2.55
2023-01-11T10:56:15.888Z,2.52
2023-01-11T10:59:17.827Z,2.55
2023-01-11T11:02:12.837Z,2.55
2023-01-11T11:05:01.451Z,2.56
2023-01-11T11:07:54.104Z,2.59
2023-01-11T11:10:36.473Z,2.64
2023-01-11T11:13:14.985Z,2.65
2023-01-11T11:15:56.844Z,2.72
2023-01-11T11:18:26.156Z,2.72
2023-01-11T11:20:52.488Z,2.72
2023-01-11T11:23:23.056Z,2.72
2023-01-11T11:25:55.046Z,2.63
2023-01-11T11:28:32.947Z,2.65
2023-01-11T11:31:03.062Z,2.66
2023-01-11T11:33:37.618Z,2.71
2023-01-11T11:36:09.138Z,2.83
2023-01-11T11:38:38.048Z,2.89
2023-01-11T11:41:04.528Z,2.93
2023-01-11T11:43:33.549Z,2.98
2023-01-11T11:46:18.664Z,2.91
2023-01-11T11:49:13.291Z,2.89
2023-01-11T11:51:42.845Z,2.81
2023-01-11T11:54:32.496Z,2.76
2023-01-11T11:57:12.529Z,2.73
2023-01-11T11:59:43.585Z,2.75
2023-01-11T12:02:24.085Z,2.78
2023-01-11T12:04:51.540Z,2.83
2023-01-11T12:07:24.042Z,2.79
2023-01-11T12:09:56.266Z,2.84
2023-01-11T12:12:25.890Z,2.84
2023-01-11T12:15:15.221Z,2.81
2023-01-11T12:17:42.562Z,2.87
2023-01-11T12:20:21.133Z,2.91
2023-01-11T12:22:48.651Z,2.99
2023-01-11T12:25:15.168Z,3.04
2023-01-11T12:28:02.024Z,3.01
2023-01-11T12:31:03.345Z,2.99
2023-01-11T12:33:47.565Z,3.00
2023-01-11T12:36:49.867Z,3.03
2023-01-11T12:39:38.057Z,3.11
2023-01-11T12:42:11.354Z,3.14
2023-01-11T12:44:55.357Z,3.12
2023-01-11T12:47:52.477Z,3.07
2023-01-11T12:50:25.331Z,3.06
2023-01-11T12:53:27.957Z,3.11
2023-01-11T12:56:24.142Z,3.13
2023-01-11T12:59:35.124Z,3.14
2023-01-11T13:02:07.492Z,3.12
2023-01-11T13:04:52.770Z,3.12
2023-01-11T13:08:07.254Z,3.20
2023-01-11T13:10:42.979Z,3.26
2023-01-11T13:13:19.052Z,3.23
2023-01-11T13:16:14.496Z,3.26
2023-01-11T13:18:51.016Z,3.18
2023-01-11T13:21:40.944Z,3.15
2023-01-11T13:24:15.541Z,3.17
2023-01-11T13:26:46.854Z,3.22
2023-01-11T13:29:37.325Z,3.13
2023-01-11T13:32:08.749Z,3.11
2023-01-11T13:34:41.355Z,3.09
2023-01-11T13:37:18.919Z,3.16
2023-01-11T13:39:54.660Z,3.15
2023-01-11T13:42:25.134Z,3.11
2023-01-11T13:45:00.607Z,3.05
2023-01-11T13:47:30.490Z,3.09
2023-01-11T13:50:00.563Z,3.13
2023-01-11T13:52:44.330Z,3.19
2023-01-11T13:55:40.659Z,3.16
2023-01-11T13:58:16.626Z,3.17
2023-01-11T14:00:50.038Z,3.24
2023-01-11T14:03:35.127Z,3.19
2023-01-11T14:06:32.054Z,3.21
2023-01-11T14:09:14.705Z,3.20
2023-01-11T14:12:03.061Z,3.20
2023-01-11T14:14:37.608Z,3.28
2023-01-11T14:17:32.270Z,3.26
2023-01-11T14:20:26.142Z,3.29
2023-01-11T14:23:13.292Z,3.29
2023-01-11T14:25:51.653Z,3.26
2023-01-11T14:28:50.973Z,3.22
2023-01-11T14:31:50.569Z,3.27
2023-01-11T14:34:47.984Z,3.23
2023-01-11T14:37:34.610Z,3.20
2023-01-11T14:40:20.088Z,3.31
2023-01-11T14:43:22.629Z,3.28
2023-01-11T14:46:09.661Z,3.18
2023-01-11T14:49:20.797Z,3.18
2023-01-11T14:51:56.276Z,3.25
2023-01-11T14:54:27.834Z,3.32
2023-01-11T14:56:58.548Z,3.27
2023-01-11T14:59:30.993Z,3.26
2023-01-11T15:02:03.713Z,3.28
2023-01-11T15:04:38.566Z,3.30
2023-01-11T15:07:22.502Z,3.32
2023-01-11T15:09:53.439Z,3.31
2023-01-11T15:12:23.056Z,3.32
2023-01-11T15:15:08.191Z,3.32
2023-01-11T15:17:53.421Z,3.27
2023-01-11T15:20:22.047Z,3.37
2023-01-11T15:23:01.374Z,3.32
2023-01-11T15:25:33.514Z,3.35
2023-01-11T15:28:04.514Z,3.31
2023-01-11T15:30:30.859Z,3.30
2023-01-11T15:33:19.253Z,3.29
2023-01-11T15:35:54.952Z,3.30
2023-01-11T15:38:52.129Z,3.32
2023-01-11T15:41:48.901Z,3.34
2023-01-11T15:44:42.584Z,3.32
2023-01-11T15:47:42.693Z,3.32
2023-01-11T15:50:35.721Z,3.33
2023-01-11T15:53:43.605Z,3.38
2023-01-11T15:56:13.018Z,3.36
2023-01-11T15:59:12.017Z,3.32
2023-01-11T16:02:04.102Z,3.34
2023-01-11T16:04:40.777Z,3.39
2023-01-11T16:07:34.019Z,3.39
2023-01-11T16:10:07.627Z,3.37
2023-01-11T16:13:00.597Z,3.39
2023-01-11T16:16:03.997Z,3.42
2023-01-11T16:18:38.784Z,3.43
2023-01-11T16:21:12.644Z,3.47
2023-01-11T16:23:39.845Z,3.44
2023-01-11T16:26:07.593Z,3.43
2023-01-11T16:28:34.613Z,3.41
2023-01-11T16:31:04.577Z,3.40
2023-01-11T16:33:34.596Z,3.44
2023-01-11T16:36:38.485Z,3.43
2023-01-11T16:39:11.697Z,3.42
2023-01-11T16:41:46.331Z,3.42
2023-01-11T16:44:41.546Z,3.45
2023-01-11T16:47:14.636Z,3.43
2023-01-11T16:49:43.284Z,3.44
2023-01-11T16:52:34.723Z,3.45
2023-01-11T16:55:03.487Z,3.42
2023-01-11T16:57:37.130Z,3.44
2023-01-11T17:00:18.810Z,3.48
2023-01-11T17:02:48.785Z,3.44
2023-01-11T17:05:23.831Z,3.49
2023-01-11T17:07:50.496Z,3.51
2023-01-11T17:10:24.979Z,3.54
2023-01-11T17:13:28.717Z,3.51
2023-01-11T17:16:02.356Z,3.53
2023-01-11T17:18:28.829Z,3.52
2023-01-11T17:20:55.293Z,3.56
2023-01-11T17:23:21.744Z,3.55
2023-01-11T17:25:55.848Z,3.56
2023-01-11T17:28:22.360Z,3.59
2023-01-11T17:30:52.282Z,3.62
2023-01-11T17:33:29.021Z,3.65
2023-01-11T17:35:55.676Z,3.73
2023-01-11T17:38:25.671Z,3.73
2023-01-11T17:40:56.603Z,3.70
2023-01-11T17:43:48.676Z,3.72
2023-01-11T17:46:24.426Z,3.73
2023-01-11T17:48:56.810Z,3.78
2023-01-11T17:51:29.029Z,3.80
2023-01-11T17:53:55.563Z,3.83
2023-01-11T17:56:37.841Z,3.83
2023-01-11T17:59:36.610Z,3.94
2023-01-11T18:02:11.919Z,4.02
2023-01-11T18:04:38.685Z,4.06
2023-01-11T18:07:08.879Z,4.10
2023-01-11T18:09:45.803Z,4.14
2023-01-11T18:12:14.579Z,4.27
2023-01-11T18:15:02.766Z,4.42
2023-01-11T18:17:32.370Z,4.47
2023-01-11T18:20:00.392Z,4.66
2023-01-11T18:22:37.085Z,4.70
2023-01-11T18:25:23.330Z,4.69
2023-01-11T18:27:50.342Z,4.72
2023-01-11T18:30:32.235Z,4.79
2023-01-11T18:33:01.888Z,4.90
2023-01-11T18:35:29.542Z,4.96
2023-01-11T18:37:56.550Z,4.99
2023-01-11T18:40:23.086Z,5.02
2023-01-11T18:42:52.725Z,5.09
2023-01-11T18:45:20.167Z,5.10
2023-01-11T18:47:46.541Z,5.12
2023-01-11T18:50:13.990Z,5.19
2023-01-11T18:52:40.727Z,5.22
2023-01-11T18:55:09.953Z,5.29
2023-01-11T18:57:36.405Z,5.26
2023-01-11T19:00:03.958Z,5.25
2023-01-11T19:02:42.353Z,5.23
2023-01-11T19:05:14.941Z,5.29
2023-01-11T19:07:41.492Z,5.32
2023-01-11T19:10:08.476Z,5.41
2023-01-11T19:12:34.988Z,5.52
2023-01-11T19:15:01.412Z,5.55
2023-01-11T19:17:28.445Z,5.54
2023-01-11T19:19:54.856Z,5.54
2023-01-11T19:22:24.573Z,5.54
2023-01-11T19:24:53.081Z,5.51
2023-01-11T19:27:19.509Z,5.50
2023-01-11T19:29:45.925Z,5.49
2023-01-11T19:32:12.373Z,5.50
2023-01-11T19:34:39.847Z,5.50
2023-01-11T19:37:06.389Z,5.45
2023-01-11T19:39:34.169Z,5.49
2023-01-11T19:42:02.301Z,5.47
2023-01-11T19:44:38.712Z,5.42
2023-01-11T19:47:11.443Z,5.38
2023-01-11T19:49:40.122Z,5.30
2023-01-11T19:52:12.196Z,5.31
2023-01-11T19:54:42.653Z,5.30
2023-01-11T19:57:14.592Z,5.32
2023-01-11T19:59:41.333Z,5.36
2023-01-11T20:02:10.066Z,5.39
2023-01-11T20:04:37.176Z,5.37
2023-01-11T20:07:03.769Z,5.34
2023-01-11T20:09:30.166Z,5.41
2023-01-11T20:11:58.660Z,5.37
2023-01-11T20:14:26.528Z,5.35
2023-01-11T20:16:52.983Z,5.36
2023-01-11T20:19:19.313Z,5.31
2023-01-11T20:21:46.737Z,5.30
2023-01-11T20:24:13.979Z,5.33
2023-01-11T20:26:41.549Z,5.27
2023-01-11T20:29:08.000Z,5.23
2023-01-11T20:31:35.614Z,5.11
2023-01-11T20:34:11.253Z,5.04
2023-01-11T20:36:37.979Z,5.02
2023-01-11T20:39:05.293Z,4.99
2023-01-11T20:41:46.872Z,4.92
2023-01-11T20:44:24.843Z,4.89
2023-01-11T20:46:52.829Z,4.86
2023-01-11T20:49:21.443Z,4.90
2023-01-11T20:51:47.954Z,4.90
2023-01-11T20:54:14.837Z,4.93
2023-01-11T20:56:41.690Z,4.92
2023-01-11T20:59:09.206Z,4.87
2023-01-11T21:01:36.454Z,4.88
2023-01-11T21:04:06.289Z,4.88
2023-01-11T21:06:34.155Z,4.92
2023-01-11T21:09:01.829Z,4.98
2023-01-11T21:11:30.660Z,5.01
2023-01-11T21:13:59.212Z,5.06
2023-01-11T21:16:27.962Z,5.05
2023-01-11T21:19:02.448Z,4.99
2023-01-11T21:21:31.112Z,5.03
2023-01-11T21:23:59.791Z,4.99
2023-01-11T21:26:27.396Z,5.04
2023-01-11T21:28:59.225Z,4.99
2023-01-11T21:31:33.682Z,5.05
2023-01-11T21:34:00.398Z,5.02
2023-01-11T21:36:28.841Z,5.03
2023-01-11T21:38:56.708Z,5.04
2023-01-11T21:41:44.899Z,5.14
2023-01-11T21:44:12.973Z,5.18
2023-01-11T21:46:40.572Z,5.15
2023-01-11T21:49:07.555Z,5.15
2023-01-11T21:51:34.537Z,5.15
2023-01-11T21:54:04.676Z,5.20
2023-01-11T21:56:31.121Z,5.18
2023-01-11T21:58:57.504Z,5.24
2023-01-11T22:01:23.903Z,5.22
2023-01-11T22:03:50.363Z,5.16
2023-01-11T22:06:17.169Z,5.12
2023-01-11T22:08:45.991Z,5.18
2023-01-11T22:11:14.479Z,5.25
2023-01-11T22:13:41.677Z,5.16
2023-01-11T22:16:12.044Z,5.12
2023-01-11T22:18:40.523Z,5.09
2023-01-11T22:21:24.771Z,5.03
2023-01-11T22:23:56.335Z,4.95
2023-01-11T22:26:23.876Z,4.88
2023-01-11T22:29:12.133Z,4.95
2023-01-11T22:31:39.799Z,4.92
2023-01-11T22:34:06.826Z,4.95
2023-01-11T22:36:33.496Z,4.92
2023-01-11T22:38:59.852Z,4.92
2023-01-11T22:41:26.467Z,4.82
2023-01-11T22:43:54.354Z,4.84
2023-01-11T22:46:23.344Z,4.83
2023-01-11T22:48:50.615Z,4.81
2023-01-11T22:51:18.786Z,4.81
2023-01-11T22:53:47.016Z,4.81
2023-01-11T22:56:15.489Z,4.84
2023-01-11T22:58:41.889Z,4.94
2023-01-11T23:01:17.019Z,5.10
2023-01-11T23:03:45.193Z,5.09
2023-01-11T23:06:12.149Z,5.04
2023-01-11T23:08:43.097Z,5.07
2023-01-11T23:11:35.652Z,5.04
2023-01-11T23:14:10.272Z,5.01
2023-01-11T23:16:37.451Z,5.04
2023-01-11T23:19:05.295Z,5.07
2023-01-11T23:21:31.701Z,5.02
2023-01-11T23:24:00.411Z,4.98
2023-01-11T23:26:26.792Z,4.96
2023-01-11T23:28:53.209Z,4.94
2023-01-11T23:31:22.541Z,4.90
2023-01-11T23:33:51.502Z,4.84
2023-01-11T23:36:20.509Z,4.87
2023-01-11T23:38:47.510Z,4.89
2023-01-11T23:41:34.779Z,4.84
2023-01-11T23:44:02.190Z,4.88
2023-01-11T23:46:47.029Z,4.88
2023-01-11T23:49:16.150Z,4.88
2023-01-11T23:51:42.955Z,4.83
2023-01-11T23:54:10.010Z,4.73
2023-01-11T23:56:37.133Z,4.74
2023-01-11T23:59:04.521Z,4.69
